sensor_id;sensor_type;location;lat;lon;timestamp;pressure;altitude;pressure_sealevel;temperature;humidity
75788;BME280;64406;50.024;14.492;2023-08-21T00:02:00;98462.59;;;21.83;71.39
75788;BME280;64406;50.024;14.492;2023-08-21T00:04:26;98450.19;;;21.73;71.88
75788;BME280;64406;50.024;14.492;2023-08-21T00:06:51;98448.31;;;21.77;72.58
75788;BME280;64406;50.024;14.492;2023-08-21T00:09:17;98452.94;;;21.73;72.40
75788;BME280;64406;50.024;14.492;2023-08-21T00:11:42;98445.38;;;21.70;72.93
75788;BME280;64406;50.024;14.492;2023-08-21T00:14:08;98443.00;;;21.68;73.62
75788;BME280;64406;50.024;14.492;2023-08-21T00:16:34;98449.50;;;21.64;74.74
75788;BME280;64406;50.024;14.492;2023-08-21T00:19:00;98449.16;;;21.65;75.19
75788;BME280;64406;50.024;14.492;2023-08-21T00:21:25;98454.78;;;21.57;75.46
75788;BME280;64406;50.024;14.492;2023-08-21T00:23:51;98451.94;;;21.53;75.92
75788;BME280;64406;50.024;14.492;2023-08-21T00:26:17;98448.72;;;21.51;76.52
75788;BME280;64406;50.024;14.492;2023-08-21T00:28:42;98442.91;;;21.53;76.56
75788;BME280;64406;50.024;14.492;2023-08-21T00:31:08;98444.75;;;21.49;76.89
75788;BME280;64406;50.024;14.492;2023-08-21T00:33:34;98455.13;;;21.43;77.07
75788;BME280;64406;50.024;14.492;2023-08-21T00:35:59;98454.56;;;21.37;77.50
75788;BME280;64406;50.024;14.492;2023-08-21T00:38:25;98451.81;;;21.37;76.87
75788;BME280;64406;50.024;14.492;2023-08-21T00:40:52;98459.25;;;21.37;76.63
75788;BME280;64406;50.024;14.492;2023-08-21T00:43:18;98452.31;;;21.39;76.48
75788;BME280;64406;50.024;14.492;2023-08-21T00:45:44;98452.31;;;21.39;76.61
75788;BME280;64406;50.024;14.492;2023-08-21T00:48:13;98446.56;;;21.32;76.90
75788;BME280;64406;50.024;14.492;2023-08-21T00:50:40;98441.78;;;21.29;76.83
75788;BME280;64406;50.024;14.492;2023-08-21T00:53:05;98444.66;;;21.33;76.66
75788;BME280;64406;50.024;14.492;2023-08-21T00:55:32;98444.31;;;21.34;76.62
75788;BME280;64406;50.024;14.492;2023-08-21T00:57:58;98441.53;;;21.22;76.99
75788;BME280;64406;50.024;14.492;2023-08-21T01:00:25;98435.63;;;21.20;77.32
75788;BME280;64406;50.024;14.492;2023-08-21T01:02:50;98439.72;;;21.14;77.51
75788;BME280;64406;50.024;14.492;2023-08-21T01:05:18;98439.94;;;21.09;77.93
75788;BME280;64406;50.024;14.492;2023-08-21T01:07:53;98440.88;;;21.01;78.21
75788;BME280;64406;50.024;14.492;2023-08-21T01:10:42;98439.84;;;20.93;78.00
75788;BME280;64406;50.024;14.492;2023-08-21T01:13:33;98440.72;;;20.85;78.70
75788;BME280;64406;50.024;14.492;2023-08-21T01:16:00;98445.50;;;20.76;79.38
75788;BME280;64406;50.024;14.492;2023-08-21T01:18:26;98436.47;;;20.63;79.95
75788;BME280;64406;50.024;14.492;2023-08-21T01:20:54;98447.78;;;20.61;79.92
75788;BME280;64406;50.024;14.492;2023-08-21T01:23:36;98450.72;;;20.56;80.07
75788;BME280;64406;50.024;14.492;2023-08-21T01:26:02;98445.81;;;20.50;80.28
75788;BME280;64406;50.024;14.492;2023-08-21T01:28:29;98446.81;;;20.45;80.20
75788;BME280;64406;50.024;14.492;2023-08-21T01:33:29;98455.09;;;20.36;80.78
75788;BME280;64406;50.024;14.492;2023-08-21T01:35:57;98446.00;;;20.45;80.21
75788;BME280;64406;50.024;14.492;2023-08-21T01:38:24;98447.13;;;20.44;80.63
75788;BME280;64406;50.024;14.492;2023-08-21T01:40:50;98448.75;;;20.45;80.71
75788;BME280;64406;50.024;14.492;2023-08-21T01:43:16;98449.69;;;20.49;80.65
75788;BME280;64406;50.024;14.492;2023-08-21T01:45:41;98455.28;;;20.52;80.52
75788;BME280;64406;50.024;14.492;2023-08-21T01:48:07;98458.25;;;20.47;80.81
75788;BME280;64406;50.024;14.492;2023-08-21T01:50:33;98459.69;;;20.45;81.24
75788;BME280;64406;50.024;14.492;2023-08-21T01:52:58;98459.75;;;20.36;81.69
75788;BME280;64406;50.024;14.492;2023-08-21T01:55:24;98464.56;;;20.39;81.74
75788;BME280;64406;50.024;14.492;2023-08-21T01:57:50;98465.34;;;20.40;81.98
75788;BME280;64406;50.024;14.492;2023-08-21T02:00:15;98454.63;;;20.34;82.28
75788;BME280;64406;50.024;14.492;2023-08-21T02:02:41;98450.81;;;20.27;82.90
75788;BME280;64406;50.024;14.492;2023-08-21T02:05:06;98449.22;;;20.26;83.08
75788;BME280;64406;50.024;14.492;2023-08-21T02:07:32;98451.97;;;20.26;83.19
75788;BME280;64406;50.024;14.492;2023-08-21T02:09:58;98444.78;;;20.21;83.20
75788;BME280;64406;50.024;14.492;2023-08-21T02:12:23;98441.91;;;20.18;83.45
75788;BME280;64406;50.024;14.492;2023-08-21T02:14:49;98448.63;;;20.20;82.96
75788;BME280;64406;50.024;14.492;2023-08-21T02:17:15;98445.78;;;20.17;83.21
75788;BME280;64406;50.024;14.492;2023-08-21T02:19:40;98445.19;;;20.11;83.53
75788;BME280;64406;50.024;14.492;2023-08-21T02:22:06;98451.19;;;20.04;84.00
75788;BME280;64406;50.024;14.492;2023-08-21T02:24:31;98448.34;;;20.01;83.59
75788;BME280;64406;50.024;14.492;2023-08-21T02:26:57;98445.69;;;19.92;84.21
75788;BME280;64406;50.024;14.492;2023-08-21T02:31:48;98438.94;;;19.90;83.97
75788;BME280;64406;50.024;14.492;2023-08-21T02:34:14;98440.69;;;19.94;83.75
75788;BME280;64406;50.024;14.492;2023-08-21T02:36:39;98428.34;;;19.88;84.25
75788;BME280;64406;50.024;14.492;2023-08-21T02:39:05;98430.16;;;19.84;84.20
75788;BME280;64406;50.024;14.492;2023-08-21T02:41:31;98446.63;;;19.75;83.91
75788;BME280;64406;50.024;14.492;2023-08-21T02:43:56;98437.47;;;19.71;84.56
75788;BME280;64406;50.024;14.492;2023-08-21T02:46:22;98441.53;;;19.65;84.62
75788;BME280;64406;50.024;14.492;2023-08-21T02:48:47;98441.88;;;19.64;85.07
75788;BME280;64406;50.024;14.492;2023-08-21T02:51:13;98443.38;;;19.61;85.42
75788;BME280;64406;50.024;14.492;2023-08-21T02:53:38;98428.06;;;19.60;85.12
75788;BME280;64406;50.024;14.492;2023-08-21T02:56:04;98430.16;;;19.63;84.51
75788;BME280;64406;50.024;14.492;2023-08-21T02:58:29;98436.13;;;19.56;84.69
75788;BME280;64406;50.024;14.492;2023-08-21T03:00:55;98433.59;;;19.51;84.82
75788;BME280;64406;50.024;14.492;2023-08-21T03:03:21;98444.25;;;19.44;85.20
75788;BME280;64406;50.024;14.492;2023-08-21T03:05:46;98431.44;;;19.36;85.54
75788;BME280;64406;50.024;14.492;2023-08-21T03:08:12;98444.16;;;19.32;85.79
75788;BME280;64406;50.024;14.492;2023-08-21T03:10:37;98439.97;;;19.35;86.12
75788;BME280;64406;50.024;14.492;2023-08-21T03:13:03;98440.19;;;19.50;86.89
75788;BME280;64406;50.024;14.492;2023-08-21T03:15:29;98440.19;;;19.50;87.18
75788;BME280;64406;50.024;14.492;2023-08-21T03:17:55;98440.97;;;19.51;87.10
75788;BME280;64406;50.024;14.492;2023-08-21T03:20:20;98453.84;;;19.50;87.41
75788;BME280;64406;50.024;14.492;2023-08-21T03:22:46;98453.13;;;19.41;87.66
75788;BME280;64406;50.024;14.492;2023-08-21T03:25:12;98454.72;;;19.42;87.68
75788;BME280;64406;50.024;14.492;2023-08-21T03:27:38;98454.09;;;19.37;87.69
75788;BME280;64406;50.024;14.492;2023-08-21T03:30:08;98459.84;;;19.44;87.19
75788;BME280;64406;50.024;14.492;2023-08-21T03:32:34;98459.22;;;19.38;87.71
75788;BME280;64406;50.024;14.492;2023-08-21T03:34:59;98462.47;;;19.32;87.97
75788;BME280;64406;50.024;14.492;2023-08-21T03:37:25;98466.34;;;19.31;88.29
75788;BME280;64406;50.024;14.492;2023-08-21T03:39:51;98471.81;;;19.31;88.58
75788;BME280;64406;50.024;14.492;2023-08-21T03:42:16;98474.19;;;19.32;88.49
75788;BME280;64406;50.024;14.492;2023-08-21T03:44:42;98484.59;;;19.39;88.55
75788;BME280;64406;50.024;14.492;2023-08-21T03:47:07;98485.63;;;19.25;89.01
75788;BME280;64406;50.024;14.492;2023-08-21T03:49:33;98486.88;;;19.37;88.72
75788;BME280;64406;50.024;14.492;2023-08-21T03:51:59;98485.19;;;19.23;89.24
75788;BME280;64406;50.024;14.492;2023-08-21T03:54:24;98492.25;;;19.24;89.60
75788;BME280;64406;50.024;14.492;2023-08-21T03:56:50;98491.44;;;19.24;89.83
75788;BME280;64406;50.024;14.492;2023-08-21T03:59:15;98495.16;;;19.19;90.38
75788;BME280;64406;50.024;14.492;2023-08-21T04:01:41;98489.75;;;19.11;91.06
75788;BME280;64406;50.024;14.492;2023-08-21T04:04:07;98491.38;;;19.03;91.32
75788;BME280;64406;50.024;14.492;2023-08-21T04:06:32;98488.50;;;18.99;91.70
75788;BME280;64406;50.024;14.492;2023-08-21T04:08:58;98485.44;;;19.01;91.70
75788;BME280;64406;50.024;14.492;2023-08-21T04:11:23;98479.66;;;19.02;91.50
75788;BME280;64406;50.024;14.492;2023-08-21T04:13:49;98477.22;;;19.01;91.21
75788;BME280;64406;50.024;14.492;2023-08-21T04:16:15;98471.66;;;18.97;91.50
75788;BME280;64406;50.024;14.492;2023-08-21T04:18:43;98472.78;;;18.96;91.33
75788;BME280;64406;50.024;14.492;2023-08-21T04:21:09;98472.91;;;19.00;90.98
75788;BME280;64406;50.024;14.492;2023-08-21T04:23:35;98478.84;;;19.02;90.98
75788;BME280;64406;50.024;14.492;2023-08-21T04:26:02;98479.03;;;18.97;90.92
75788;BME280;64406;50.024;14.492;2023-08-21T04:28:32;98480.81;;;18.93;91.15
75788;BME280;64406;50.024;14.492;2023-08-21T04:30:58;98474.72;;;18.96;90.96
75788;BME280;64406;50.024;14.492;2023-08-21T04:33:25;98469.25;;;18.96;91.15
75788;BME280;64406;50.024;14.492;2023-08-21T04:35:51;98477.44;;;18.96;91.03
75788;BME280;64406;50.024;14.492;2023-08-21T04:38:17;98477.28;;;18.92;91.07
75788;BME280;64406;50.024;14.492;2023-08-21T04:40:43;98476.47;;;18.92;91.16
75788;BME280;64406;50.024;14.492;2023-08-21T04:43:09;98489.16;;;18.96;90.78
75788;BME280;64406;50.024;14.492;2023-08-21T04:45:34;98485.13;;;19.02;90.92
75788;BME280;64406;50.024;14.492;2023-08-21T04:48:00;98479.78;;;19.06;90.35
75788;BME280;64406;50.024;14.492;2023-08-21T04:50:26;98490.06;;;19.09;90.70
75788;BME280;64406;50.024;14.492;2023-08-21T04:52:51;98487.00;;;19.11;90.46
75788;BME280;64406;50.024;14.492;2023-08-21T04:55:17;98487.75;;;19.20;90.08
75788;BME280;64406;50.024;14.492;2023-08-21T04:57:43;98491.44;;;19.24;90.55
75788;BME280;64406;50.024;14.492;2023-08-21T05:00:08;98489.34;;;19.29;90.21
75788;BME280;64406;50.024;14.492;2023-08-21T05:02:35;98485.94;;;19.33;90.24
75788;BME280;64406;50.024;14.492;2023-08-21T05:05:00;98492.00;;;19.38;90.10
75788;BME280;64406;50.024;14.492;2023-08-21T05:07:26;98494.84;;;19.50;89.42
75788;BME280;64406;50.024;14.492;2023-08-21T05:09:54;98488.38;;;19.55;89.24
75788;BME280;64406;50.024;14.492;2023-08-21T05:12:20;98496.09;;;19.62;89.13
75788;BME280;64406;50.024;14.492;2023-08-21T05:14:45;98494.97;;;19.63;89.33
75788;BME280;64406;50.024;14.492;2023-08-21T05:17:11;98494.44;;;19.69;88.67
75788;BME280;64406;50.024;14.492;2023-08-21T05:19:37;98499.22;;;19.72;88.66
75788;BME280;64406;50.024;14.492;2023-08-21T05:22:02;98501.41;;;19.79;88.67
75788;BME280;64406;50.024;14.492;2023-08-21T05:24:28;98499.75;;;19.87;88.37
75788;BME280;64406;50.024;14.492;2023-08-21T05:26:55;98504.16;;;20.00;87.66
75788;BME280;64406;50.024;14.492;2023-08-21T05:29:20;98506.69;;;20.05;87.39
75788;BME280;64406;50.024;14.492;2023-08-21T05:31:46;98510.41;;;20.42;85.15
75788;BME280;64406;50.024;14.492;2023-08-21T05:34:11;98502.41;;;20.37;85.35
75788;BME280;64406;50.024;14.492;2023-08-21T05:36:37;98507.88;;;20.37;85.32
75788;BME280;64406;50.024;14.492;2023-08-21T05:39:04;98507.19;;;20.40;85.45
75788;BME280;64406;50.024;14.492;2023-08-21T05:41:32;98506.53;;;20.43;85.43
75788;BME280;64406;50.024;14.492;2023-08-21T05:43:58;98504.06;;;20.50;84.92
75788;BME280;64406;50.024;14.492;2023-08-21T05:46:23;98500.34;;;20.55;84.55
75788;BME280;64406;50.024;14.492;2023-08-21T05:48:49;98505.72;;;20.63;84.41
75788;BME280;64406;50.024;14.492;2023-08-21T05:51:14;98503.56;;;20.69;83.97
75788;BME280;64406;50.024;14.492;2023-08-21T05:53:40;98513.06;;;20.84;84.07
75788;BME280;64406;50.024;14.492;2023-08-21T05:56:06;98515.13;;;20.87;83.35
75788;BME280;64406;50.024;14.492;2023-08-21T05:58:31;98513.44;;;20.95;82.83
75788;BME280;64406;50.024;14.492;2023-08-21T06:00:58;98518.00;;;21.03;82.52
75788;BME280;64406;50.024;14.492;2023-08-21T06:03:24;98523.72;;;21.10;81.86
75788;BME280;64406;50.024;14.492;2023-08-21T06:05:50;98524.41;;;21.07;81.40
75788;BME280;64406;50.024;14.492;2023-08-21T06:08:16;98528.53;;;21.13;81.49
75788;BME280;64406;50.024;14.492;2023-08-21T06:10:41;98531.63;;;21.24;81.12
75788;BME280;64406;50.024;14.492;2023-08-21T06:13:07;98529.66;;;21.24;81.21
75788;BME280;64406;50.024;14.492;2023-08-21T06:15:33;98527.31;;;21.35;81.32
75788;BME280;64406;50.024;14.492;2023-08-21T06:17:59;98529.63;;;21.33;81.54
75788;BME280;64406;50.024;14.492;2023-08-21T06:20:25;98522.06;;;21.30;81.10
75788;BME280;64406;50.024;14.492;2023-08-21T06:22:51;98524.13;;;21.33;81.38
75788;BME280;64406;50.024;14.492;2023-08-21T06:25:17;98539.44;;;21.34;81.40
75788;BME280;64406;50.024;14.492;2023-08-21T06:27:44;98536.22;;;21.32;81.27
75788;BME280;64406;50.024;14.492;2023-08-21T06:30:10;98535.19;;;21.36;80.73
75788;BME280;64406;50.024;14.492;2023-08-21T06:32:36;98545.81;;;21.38;80.75
75788;BME280;64406;50.024;14.492;2023-08-21T06:35:02;98536.56;;;21.55;80.36
75788;BME280;64406;50.024;14.492;2023-08-21T06:37:27;98545.94;;;21.66;79.88
75788;BME280;64406;50.024;14.492;2023-08-21T06:39:53;98546.13;;;21.85;79.35
75788;BME280;64406;50.024;14.492;2023-08-21T06:42:19;98536.41;;;22.00;78.38
75788;BME280;64406;50.024;14.492;2023-08-21T06:44:45;98530.53;;;22.26;77.48
75788;BME280;64406;50.024;14.492;2023-08-21T06:47:10;98532.31;;;22.34;76.53
75788;BME280;64406;50.024;14.492;2023-08-21T06:49:36;98536.69;;;22.23;77.14
75788;BME280;64406;50.024;14.492;2023-08-21T06:52:01;98537.63;;;22.27;76.80
75788;BME280;64406;50.024;14.492;2023-08-21T06:54:29;98529.97;;;22.48;76.25
75788;BME280;64406;50.024;14.492;2023-08-21T06:56:54;98539.53;;;22.83;74.63
75788;BME280;64406;50.024;14.492;2023-08-21T06:59:20;98531.78;;;23.16;73.66
75788;BME280;64406;50.024;14.492;2023-08-21T07:01:45;98534.53;;;23.16;72.78
75788;BME280;64406;50.024;14.492;2023-08-21T07:04:11;98545.81;;;23.27;72.96
75788;BME280;64406;50.024;14.492;2023-08-21T07:06:37;98545.34;;;23.56;72.23
75788;BME280;64406;50.024;14.492;2023-08-21T07:09:02;98544.75;;;23.31;72.08
75788;BME280;64406;50.024;14.492;2023-08-21T07:11:28;98546.13;;;23.57;71.45
75788;BME280;64406;50.024;14.492;2023-08-21T07:13:54;98544.66;;;23.59;71.79
75788;BME280;64406;50.024;14.492;2023-08-21T07:16:20;98544.84;;;23.67;70.91
75788;BME280;64406;50.024;14.492;2023-08-21T07:18:46;98547.97;;;23.65;71.22
75788;BME280;64406;50.024;14.492;2023-08-21T07:21:11;98553.09;;;24.02;69.69
75788;BME280;64406;50.024;14.492;2023-08-21T07:23:37;98550.63;;;24.32;68.59
75788;BME280;64406;50.024;14.492;2023-08-21T07:26:02;98546.81;;;24.36;68.01
75788;BME280;64406;50.024;14.492;2023-08-21T07:28:30;98555.41;;;24.74;67.19
75788;BME280;64406;50.024;14.492;2023-08-21T07:30:57;98547.56;;;24.76;66.82
75788;BME280;64406;50.024;14.492;2023-08-21T07:33:23;98540.78;;;24.92;66.76
75788;BME280;64406;50.024;14.492;2023-08-21T07:36:05;98540.75;;;25.35;65.90
75788;BME280;64406;50.024;14.492;2023-08-21T07:38:31;98535.25;;;25.35;64.65
75788;BME280;64406;50.024;14.492;2023-08-21T07:41:11;98549.47;;;25.14;64.85
75788;BME280;64406;50.024;14.492;2023-08-21T07:43:39;98563.91;;;24.65;67.25
75788;BME280;64406;50.024;14.492;2023-08-21T07:46:07;98547.66;;;24.60;68.01
75788;BME280;64406;50.024;14.492;2023-08-21T07:48:33;98550.66;;;24.51;66.71
75788;BME280;64406;50.024;14.492;2023-08-21T07:50:59;98556.13;;;24.32;67.85
75788;BME280;64406;50.024;14.492;2023-08-21T07:53:25;98562.97;;;24.38;68.30
75788;BME280;64406;50.024;14.492;2023-08-21T07:55:51;98556.53;;;24.14;68.37
75788;BME280;64406;50.024;14.492;2023-08-21T07:58:17;98555.81;;;24.18;68.08
75788;BME280;64406;50.024;14.492;2023-08-21T08:00:43;98551.53;;;24.20;68.00
75788;BME280;64406;50.024;14.492;2023-08-21T08:03:09;98550.72;;;24.00;69.34
75788;BME280;64406;50.024;14.492;2023-08-21T08:05:36;98553.19;;;24.05;69.51
75788;BME280;64406;50.024;14.492;2023-08-21T08:08:02;98550.53;;;24.28;68.17
75788;BME280;64406;50.024;14.492;2023-08-21T08:10:28;98546.63;;;24.49;67.25
75788;BME280;64406;50.024;14.492;2023-08-21T08:12:53;98548.16;;;24.65;67.41
75788;BME280;64406;50.024;14.492;2023-08-21T08:15:20;98550.53;;;24.86;66.57
75788;BME280;64406;50.024;14.492;2023-08-21T08:17:46;98542.13;;;25.21;65.24
75788;BME280;64406;50.024;14.492;2023-08-21T08:20:12;98541.09;;;25.07;65.04
75788;BME280;64406;50.024;14.492;2023-08-21T08:22:39;98546.03;;;25.43;63.64
75788;BME280;64406;50.024;14.492;2023-08-21T08:25:05;98552.00;;;25.72;62.88
75788;BME280;64406;50.024;14.492;2023-08-21T08:27:32;98552.25;;;25.86;62.84
75788;BME280;64406;50.024;14.492;2023-08-21T08:29:58;98558.25;;;26.48;60.72
75788;BME280;64406;50.024;14.492;2023-08-21T08:32:25;98549.78;;;26.38;61.32
75788;BME280;64406;50.024;14.492;2023-08-21T08:34:52;98551.41;;;26.72;60.43
75788;BME280;64406;50.024;14.492;2023-08-21T08:37:18;98545.28;;;26.93;59.73
75788;BME280;64406;50.024;14.492;2023-08-21T08:39:43;98536.47;;;27.14;59.08
75788;BME280;64406;50.024;14.492;2023-08-21T08:42:10;98548.22;;;27.48;58.30
75788;BME280;64406;50.024;14.492;2023-08-21T08:44:36;98543.97;;;27.65;56.67
75788;BME280;64406;50.024;14.492;2023-08-21T08:47:03;98540.69;;;28.04;55.39
75788;BME280;64406;50.024;14.492;2023-08-21T08:49:30;98543.53;;;28.18;54.30
75788;BME280;64406;50.024;14.492;2023-08-21T08:51:57;98551.81;;;28.11;54.49
75788;BME280;64406;50.024;14.492;2023-08-21T08:54:23;98553.19;;;28.45;53.98
75788;BME280;64406;50.024;14.492;2023-08-21T08:56:51;98546.84;;;28.41;53.29
75788;BME280;64406;50.024;14.492;2023-08-21T08:59:16;98552.19;;;28.06;54.60
75788;BME280;64406;50.024;14.492;2023-08-21T09:01:43;98549.25;;;27.77;55.34
75788;BME280;64406;50.024;14.492;2023-08-21T09:04:09;98549.19;;;27.70;57.32
75788;BME280;64406;50.024;14.492;2023-08-21T09:06:35;98548.06;;;27.30;57.39
75788;BME280;64406;50.024;14.492;2023-08-21T09:09:01;98553.19;;;27.32;57.60
75788;BME280;64406;50.024;14.492;2023-08-21T09:11:27;98548.38;;;26.84;58.29
75788;BME280;64406;50.024;14.492;2023-08-21T09:13:54;98551.03;;;27.07;58.70
75788;BME280;64406;50.024;14.492;2023-08-21T09:16:21;98544.56;;;27.37;57.03
75788;BME280;64406;50.024;14.492;2023-08-21T09:18:56;98544.72;;;27.58;57.07
75788;BME280;64406;50.024;14.492;2023-08-21T09:21:24;98549.13;;;27.67;56.99
75788;BME280;64406;50.024;14.492;2023-08-21T09:23:57;98552.50;;;27.90;56.18
75788;BME280;64406;50.024;14.492;2023-08-21T09:26:24;98550.59;;;27.50;56.24
75788;BME280;64406;50.024;14.492;2023-08-21T09:28:51;98549.06;;;27.59;56.71
75788;BME280;64406;50.024;14.492;2023-08-21T09:31:29;98542.50;;;27.75;55.86
75788;BME280;64406;50.024;14.492;2023-08-21T09:34:02;98540.53;;;27.75;56.58
75788;BME280;64406;50.024;14.492;2023-08-21T09:36:32;98546.50;;;27.84;55.92
75788;BME280;64406;50.024;14.492;2023-08-21T09:38:58;98533.25;;;27.08;57.87
75788;BME280;64406;50.024;14.492;2023-08-21T09:41:24;98534.72;;;27.43;57.50
75788;BME280;64406;50.024;14.492;2023-08-21T09:43:51;98538.75;;;27.53;56.64
75788;BME280;64406;50.024;14.492;2023-08-21T09:46:24;98539.56;;;27.57;56.62
75788;BME280;64406;50.024;14.492;2023-08-21T09:48:51;98536.56;;;26.88;58.54
75788;BME280;64406;50.024;14.492;2023-08-21T09:51:17;98535.72;;;26.83;58.73
75788;BME280;64406;50.024;14.492;2023-08-21T09:53:44;98535.16;;;27.49;57.90
75788;BME280;64406;50.024;14.492;2023-08-21T09:56:10;98522.69;;;27.73;56.09
75788;BME280;64406;50.024;14.492;2023-08-21T09:58:36;98529.84;;;27.26;56.42
75788;BME280;64406;50.024;14.492;2023-08-21T10:01:05;98514.63;;;27.50;55.96
75788;BME280;64406;50.024;14.492;2023-08-21T10:03:41;98518.78;;;27.77;55.71
75788;BME280;64406;50.024;14.492;2023-08-21T10:06:11;98520.16;;;27.50;55.51
75788;BME280;64406;50.024;14.492;2023-08-21T10:08:39;98522.06;;;27.42;56.49
75788;BME280;64406;50.024;14.492;2023-08-21T10:11:09;98527.69;;;28.11;55.21
75788;BME280;64406;50.024;14.492;2023-08-21T10:13:37;98525.06;;;28.43;52.56
75788;BME280;64406;50.024;14.492;2023-08-21T10:16:04;98524.19;;;28.29;52.68
75788;BME280;64406;50.024;14.492;2023-08-21T10:18:31;98518.75;;;28.43;51.30
75788;BME280;64406;50.024;14.492;2023-08-21T10:21:11;98518.09;;;27.98;52.97
75788;BME280;64406;50.024;14.492;2023-08-21T10:23:38;98508.31;;;28.15;52.44
75788;BME280;64406;50.024;14.492;2023-08-21T10:26:08;98515.50;;;28.27;52.98
75788;BME280;64406;50.024;14.492;2023-08-21T10:29:01;98518.44;;;27.86;53.29
75788;BME280;64406;50.024;14.492;2023-08-21T10:31:39;98511.25;;;27.74;53.57
75788;BME280;64406;50.024;14.492;2023-08-21T10:34:12;98515.31;;;27.91;53.64
75788;BME280;64406;50.024;14.492;2023-08-21T10:39:22;98517.69;;;27.89;53.99
75788;BME280;64406;50.024;14.492;2023-08-21T10:42:07;98509.72;;;27.80;53.69
75788;BME280;64406;50.024;14.492;2023-08-21T10:44:47;98517.06;;;28.21;53.07
75788;BME280;64406;50.024;14.492;2023-08-21T10:47:32;98515.50;;;28.27;51.54
75788;BME280;64406;50.024;14.492;2023-08-21T10:50:07;98511.41;;;29.08;50.23
75788;BME280;64406;50.024;14.492;2023-08-21T10:52:40;98513.38;;;29.11;49.52
75788;BME280;64406;50.024;14.492;2023-08-21T10:55:11;98510.97;;;29.77;48.29
75788;BME280;64406;50.024;14.492;2023-08-21T10:57:38;98511.59;;;30.42;46.22
75788;BME280;64406;50.024;14.492;2023-08-21T11:00:07;98505.91;;;30.67;46.63
75788;BME280;64406;50.024;14.492;2023-08-21T11:02:43;98508.06;;;30.34;46.79
75788;BME280;64406;50.024;14.492;2023-08-21T11:05:10;98508.47;;;30.32;46.85
75788;BME280;64406;50.024;14.492;2023-08-21T11:07:38;98508.84;;;30.38;45.38
75788;BME280;64406;50.024;14.492;2023-08-21T11:10:06;98508.59;;;29.83;47.13
75788;BME280;64406;50.024;14.492;2023-08-21T11:12:33;98505.38;;;30.93;45.53
75788;BME280;64406;50.024;14.492;2023-08-21T11:14:58;98504.06;;;31.12;44.72
75788;BME280;64406;50.024;14.492;2023-08-21T11:17:24;98507.88;;;31.32;44.03
75788;BME280;64406;50.024;14.492;2023-08-21T11:19:50;98507.59;;;31.64;43.15
75788;BME280;64406;50.024;14.492;2023-08-21T11:22:17;98501.16;;;31.23;44.92
75788;BME280;64406;50.024;14.492;2023-08-21T11:24:47;98499.03;;;30.12;45.79
75788;BME280;64406;50.024;14.492;2023-08-21T11:27:15;98500.53;;;31.01;44.78
75788;BME280;64406;50.024;14.492;2023-08-21T11:29:45;98492.56;;;31.55;43.23
75788;BME280;64406;50.024;14.492;2023-08-21T11:32:22;98496.13;;;31.55;42.52
75788;BME280;64406;50.024;14.492;2023-08-21T11:34:53;98490.38;;;31.77;43.07
75788;BME280;64406;50.024;14.492;2023-08-21T11:37:22;98501.00;;;30.92;44.58
75788;BME280;64406;50.024;14.492;2023-08-21T11:39:50;98489.75;;;30.40;45.09
75788;BME280;64406;50.024;14.492;2023-08-21T11:42:19;98495.28;;;31.13;43.24
75788;BME280;64406;50.024;14.492;2023-08-21T11:44:53;98490.16;;;31.98;42.10
75788;BME280;64406;50.024;14.492;2023-08-21T11:47:22;98498.94;;;32.31;40.75
75788;BME280;64406;50.024;14.492;2023-08-21T11:49:48;98483.97;;;31.80;42.46
75788;BME280;64406;50.024;14.492;2023-08-21T11:52:22;98493.78;;;32.29;41.71
75788;BME280;64406;50.024;14.492;2023-08-21T11:54:49;98486.28;;;31.47;42.10
75788;BME280;64406;50.024;14.492;2023-08-21T11:57:15;98482.34;;;31.82;41.83
75788;BME280;64406;50.024;14.492;2023-08-21T11:59:41;98491.28;;;32.04;41.05
75788;BME280;64406;50.024;14.492;2023-08-21T12:02:14;98493.84;;;31.88;42.10
75788;BME280;64406;50.024;14.492;2023-08-21T12:04:40;98495.53;;;31.75;42.30
75788;BME280;64406;50.024;14.492;2023-08-21T12:07:06;98482.75;;;31.84;42.51
75788;BME280;64406;50.024;14.492;2023-08-21T12:09:32;98486.19;;;32.30;40.86
75788;BME280;64406;50.024;14.492;2023-08-21T12:11:57;98487.97;;;32.47;40.54
75788;BME280;64406;50.024;14.492;2023-08-21T12:14:23;98486.91;;;32.37;40.42
75788;BME280;64406;50.024;14.492;2023-08-21T12:16:49;98486.19;;;32.30;40.64
75788;BME280;64406;50.024;14.492;2023-08-21T12:19:15;98484.47;;;32.43;41.12
75788;BME280;64406;50.024;14.492;2023-08-21T12:21:41;98477.81;;;32.33;41.06
75788;BME280;64406;50.024;14.492;2023-08-21T12:24:06;98479.91;;;31.88;41.69
75788;BME280;64406;50.024;14.492;2023-08-21T12:26:33;98465.97;;;31.50;42.07
75788;BME280;64406;50.024;14.492;2023-08-21T12:29:00;98477.66;;;30.75;42.60
75788;BME280;64406;50.024;14.492;2023-08-21T12:31:26;98463.00;;;30.68;42.77
75788;BME280;64406;50.024;14.492;2023-08-21T12:33:52;98463.81;;;30.68;44.07
75788;BME280;64406;50.024;14.492;2023-08-21T12:38:52;98463.31;;;31.77;40.98
75788;BME280;64406;50.024;14.492;2023-08-21T12:41:18;98459.22;;;32.19;39.90
75788;BME280;64406;50.024;14.492;2023-08-21T12:43:43;98469.13;;;31.52;40.25
75788;BME280;64406;50.024;14.492;2023-08-21T12:46:09;98460.50;;;31.77;39.12
75788;BME280;64406;50.024;14.492;2023-08-21T12:48:34;98461.63;;;33.06;38.23
75788;BME280;64406;50.024;14.492;2023-08-21T12:51:01;98452.72;;;34.41;34.78
75788;BME280;64406;50.024;14.492;2023-08-21T12:53:27;98452.66;;;35.46;33.41
75788;BME280;64406;50.024;14.492;2023-08-21T12:55:53;98449.09;;;34.60;33.15
75788;BME280;64406;50.024;14.492;2023-08-21T12:58:18;98447.56;;;37.99;28.76
75788;BME280;64406;50.024;14.492;2023-08-21T13:00:44;98440.84;;;39.57;26.65